createdAt,value
2019-02-11T00:00:40.274Z,1.87
2019-02-11T00:03:11.213Z,2.03
2019-02-11T00:05:40.138Z,2.17
2019-02-11T00:08:11.502Z,1.97
2019-02-11T00:10:40.697Z,2.50
2019-02-11T00:13:11.010Z,2.57
2019-02-11T00:15:40.654Z,2.90
2019-02-11T00:18:10.491Z,2.70
2019-02-11T00:20:39.767Z,3.00
2019-02-11T00:23:09.567Z,3.53
2019-02-11T00:25:42.661Z,2.67
2019-02-11T00:28:12.315Z,3.40
2019-02-11T00:30:45.471Z,3.00
2019-02-11T00:33:14.383Z,2.60
2019-02-11T00:35:48.125Z,2.87
2019-02-11T00:38:17.997Z,2.20
2019-02-11T00:40:51.242Z,2.40
2019-02-11T00:43:20.809Z,2.60
2019-02-11T00:45:54.687Z,2.00
2019-02-11T00:48:24.262Z,2.30
2019-02-11T00:50:59.189Z,2.67
2019-02-11T00:53:28.353Z,2.33
2019-02-11T00:56:00.950Z,2.20
2019-02-11T00:58:31.412Z,2.47
2019-02-11T01:01:02.811Z,2.67
2019-02-11T01:03:32.372Z,3.17
2019-02-11T01:06:04.764Z,2.80
2019-02-11T01:08:33.685Z,2.40
2019-02-11T01:11:03.702Z,2.20
2019-02-11T01:13:33.582Z,2.17
2019-02-11T01:16:03.143Z,2.10
2019-02-11T01:18:32.737Z,2.17
2019-02-11T01:21:02.595Z,1.87
2019-02-11T01:23:32.158Z,2.30
2019-02-11T01:26:01.761Z,2.57
2019-02-11T01:28:31.627Z,2.20
2019-02-11T01:31:00.543Z,2.30
2019-02-11T01:33:30.106Z,1.90
2019-02-11T01:35:59.333Z,2.10
2019-02-11T01:38:28.901Z,2.30
2019-02-11T01:40:57.848Z,1.80
2019-02-11T01:43:35.778Z,2.03
2019-02-11T01:45:59.006Z,2.20
2019-02-11T01:48:30.030Z,2.20
2019-02-11T01:50:59.882Z,1.67
2019-02-11T01:53:32.226Z,2.60
2019-02-11T01:56:01.823Z,1.73
2019-02-11T01:58:34.461Z,2.10
2019-02-11T02:01:05.165Z,1.77
2019-02-11T02:03:37.096Z,1.60
2019-02-11T02:06:06.700Z,1.50
2019-02-11T02:08:39.845Z,1.67
2019-02-11T02:11:09.958Z,2.43
2019-02-11T02:13:44.778Z,2.00
2019-02-11T02:16:13.968Z,2.70
2019-02-11T02:18:45.333Z,2.53
2019-02-11T02:21:14.249Z,2.70
2019-02-11T02:23:49.778Z,2.73
2019-02-11T02:26:19.600Z,2.90
2019-02-11T02:28:51.965Z,3.40
2019-02-11T02:31:20.909Z,3.67
2019-02-11T02:33:56.823Z,4.13
2019-02-11T02:36:26.416Z,3.57
2019-02-11T02:38:58.948Z,3.57
2019-02-11T02:41:28.122Z,3.93
2019-02-11T02:44:00.808Z,4.60
2019-02-11T02:46:30.352Z,4.87
2019-02-11T02:49:03.259Z,5.10
2019-02-11T02:51:32.859Z,5.53
2019-02-11T02:54:05.766Z,6.20
2019-02-11T02:56:35.653Z,6.60
2019-02-11T02:59:10.971Z,7.57
2019-02-11T03:01:40.558Z,7.10
2019-02-11T03:04:13.134Z,7.43
2019-02-11T03:06:42.760Z,7.47
2019-02-11T03:09:15.105Z,6.73
2019-02-11T03:11:44.676Z,6.43
2019-02-11T03:14:16.906Z,6.20
2019-02-11T03:16:46.501Z,6.07
2019-02-11T03:19:22.034Z,5.30
2019-02-11T03:21:51.591Z,5.60
2019-02-11T03:24:23.567Z,4.97
2019-02-11T03:26:53.520Z,4.73
2019-02-11T03:29:24.801Z,5.47
2019-02-11T03:31:53.719Z,5.70
2019-02-11T03:34:29.086Z,5.90
2019-02-11T03:36:58.654Z,4.70
2019-02-11T03:39:31.005Z,4.83
2019-02-11T03:42:00.913Z,4.77
2019-02-11T03:44:33.410Z,4.80
2019-02-11T03:47:03.014Z,4.77
2019-02-11T03:49:34.954Z,5.00
2019-02-11T03:52:04.547Z,5.00
2019-02-11T03:54:36.762Z,4.57
2019-02-11T03:57:06.350Z,3.83
2019-02-11T03:59:40.549Z,5.10
2019-02-11T04:02:11.526Z,4.87
2019-02-11T04:04:41.690Z,4.30
2019-02-11T04:07:10.605Z,5.13
2019-02-11T04:09:44.566Z,4.77
2019-02-11T04:12:13.478Z,5.03
2019-02-11T04:14:47.444Z,5.20
2019-02-11T04:17:17.021Z,4.97
2019-02-11T04:19:54.062Z,5.17
2019-02-11T04:22:23.660Z,4.97
2019-02-11T04:24:54.320Z,4.40
2019-02-11T04:27:23.538Z,4.87
2019-02-11T04:29:56.825Z,4.50
2019-02-11T04:32:26.413Z,4.97
2019-02-11T04:35:00.347Z,5.10
2019-02-11T04:37:29.979Z,4.77
2019-02-11T04:40:03.394Z,5.57
2019-02-11T04:42:32.992Z,5.87
2019-02-11T04:45:07.776Z,6.53
2019-02-11T04:47:37.014Z,5.27
2019-02-11T04:50:12.906Z,5.50
2019-02-11T04:52:42.542Z,6.30
2019-02-11T04:55:15.158Z,6.03
2019-02-11T04:57:44.743Z,5.00
2019-02-11T05:00:15.200Z,5.33
2019-02-11T05:02:44.785Z,5.67
2019-02-11T05:05:16.842Z,6.37
2019-02-11T05:07:46.758Z,6.30
2019-02-11T05:12:56.460Z,5.67
2019-02-11T05:15:26.114Z,5.80
2019-02-11T05:17:55.890Z,5.50
2019-02-11T05:20:28.958Z,5.40
2019-02-11T05:22:58.619Z,5.83
2019-02-11T05:25:30.706Z,5.37
2019-02-11T05:28:00.598Z,5.00
2019-02-11T05:30:34.177Z,5.27
2019-02-11T05:33:04.080Z,5.03
2019-02-11T05:35:37.139Z,5.47
2019-02-11T05:38:06.751Z,5.70
2019-02-11T05:40:39.805Z,5.73
2019-02-11T05:43:08.819Z,5.73
2019-02-11T05:45:43.965Z,5.73
2019-02-11T05:48:13.821Z,6.10
2019-02-11T05:50:46.478Z,5.83
2019-02-11T05:53:16.118Z,6.37
2019-02-11T05:55:49.141Z,5.53
2019-02-11T05:58:18.768Z,5.67
2019-02-11T06:00:51.324Z,6.00
2019-02-11T06:03:20.250Z,5.63
2019-02-11T06:05:54.851Z,5.90
2019-02-11T06:08:25.117Z,5.63
2019-02-11T06:10:56.393Z,5.63
2019-02-11T06:13:27.421Z,6.90
2019-02-11T06:16:08.031Z,6.63
2019-02-11T06:18:37.633Z,6.30
2019-02-11T06:21:07.561Z,5.77
2019-02-11T06:23:36.500Z,6.07
2019-02-11T06:26:09.588Z,6.20
2019-02-11T06:28:38.773Z,5.50
2019-02-11T06:31:18.198Z,5.70
2019-02-11T06:33:47.151Z,5.80
2019-02-11T06:36:16.124Z,6.13
2019-02-11T06:38:45.278Z,6.13
2019-02-11T06:41:19.728Z,6.77
2019-02-11T06:43:49.523Z,6.73
2019-02-11T06:46:20.249Z,7.27
2019-02-11T06:48:50.091Z,5.60
2019-02-11T06:51:22.117Z,10.67
2019-02-11T06:53:56.561Z,6.50
2019-02-11T06:56:26.521Z,7.30
2019-02-11T06:58:55.874Z,7.93
2019-02-11T07:01:28.953Z,6.07
2019-02-11T07:03:58.561Z,5.70
2019-02-11T07:06:31.046Z,5.97
2019-02-11T07:09:00.638Z,5.50
2019-02-11T07:11:33.587Z,4.53
2019-02-11T07:14:03.217Z,5.07
2019-02-11T07:16:37.335Z,5.93
2019-02-11T07:19:06.947Z,5.17
2019-02-11T07:21:39.357Z,6.13
2019-02-11T07:24:11.334Z,6.17
2019-02-11T07:26:40.596Z,6.33
2019-02-11T07:29:12.472Z,5.07
2019-02-11T07:31:44.268Z,5.63
2019-02-11T07:34:13.469Z,5.73
2019-02-11T07:36:45.478Z,5.37
2019-02-11T07:39:14.437Z,5.03
2019-02-11T07:42:07.927Z,4.67
2019-02-11T07:44:48.178Z,5.03
2019-02-11T07:47:17.762Z,4.70
2019-02-11T07:49:51.010Z,6.33
2019-02-11T07:52:26.652Z,5.12
2019-02-11T07:54:55.292Z,4.97
2019-02-11T07:57:25.346Z,4.23
2019-02-11T08:00:02.000Z,5.07
2019-02-11T08:02:31.636Z,5.23
2019-02-11T08:05:01.847Z,4.00
2019-02-11T08:07:30.786Z,5.00
2019-02-11T08:10:05.655Z,3.53
2019-02-11T08:12:36.151Z,4.37
2019-02-11T08:15:09.669Z,4.73
2019-02-11T08:17:38.602Z,5.67
2019-02-11T08:20:12.947Z,4.40
2019-02-11T08:22:42.102Z,4.90
2019-02-11T08:25:16.273Z,4.80
2019-02-11T08:27:45.678Z,4.67
2019-02-11T08:30:18.131Z,4.87
2019-02-11T08:32:47.083Z,4.00
2019-02-11T08:35:22.347Z,4.50
2019-02-11T08:37:52.578Z,4.80
2019-02-11T08:40:23.648Z,4.90
2019-02-11T08:42:53.669Z,4.77
2019-02-11T08:45:26.390Z,4.03
2019-02-11T08:47:55.981Z,3.83
2019-02-11T08:50:28.115Z,4.53
2019-02-11T08:52:57.855Z,4.53
2019-02-11T08:55:29.136Z,5.17
2019-02-11T08:57:58.456Z,4.23
2019-02-11T09:00:32.264Z,4.53
2019-02-11T09:03:01.852Z,4.97
2019-02-11T09:05:37.604Z,4.23
2019-02-11T09:08:06.535Z,6.10
2019-02-11T09:10:37.210Z,4.93
2019-02-11T09:13:06.336Z,4.17
2019-02-11T09:15:39.240Z,4.70
2019-02-11T09:18:09.480Z,4.63
2019-02-11T09:20:42.172Z,4.30
2019-02-11T09:23:12.090Z,4.43
2019-02-11T09:25:47.798Z,4.30
2019-02-11T09:28:17.462Z,4.77
2019-02-11T09:30:48.442Z,4.27
2019-02-11T09:33:18.461Z,3.93
2019-02-11T09:35:54.113Z,4.30
2019-02-11T09:38:23.129Z,4.20
2019-02-11T09:40:56.294Z,4.30
2019-02-11T09:43:25.926Z,3.33
2019-02-11T09:46:03.548Z,3.67
2019-02-11T09:48:26.897Z,3.90
2019-02-11T09:51:00.734Z,4.27
2019-02-11T09:53:30.318Z,3.93
2019-02-11T09:56:06.358Z,3.97
2019-02-11T09:58:38.117Z,4.00
2019-02-11T10:01:07.840Z,3.73
2019-02-11T10:03:37.805Z,4.10
2019-02-11T10:06:13.635Z,3.67
2019-02-11T10:08:43.545Z,3.90
2019-02-11T10:11:14.201Z,4.93
2019-02-11T10:13:44.414Z,4.20
2019-02-11T10:16:15.173Z,4.93
2019-02-11T10:18:44.786Z,5.00
2019-02-11T10:21:20.136Z,5.77
2019-02-11T10:23:49.858Z,4.80
2019-02-11T10:26:21.789Z,4.77
2019-02-11T10:28:51.894Z,5.47
2019-02-11T10:31:24.577Z,4.77
2019-02-11T10:33:54.154Z,5.20
2019-02-11T10:36:27.966Z,6.07
2019-02-11T10:38:56.934Z,5.63
2019-02-11T10:41:29.195Z,5.13
2019-02-11T10:43:59.169Z,4.83
2019-02-11T10:46:31.874Z,5.43
2019-02-11T10:49:01.479Z,5.03
2019-02-11T10:51:33.888Z,6.40
2019-02-11T10:54:02.834Z,4.93
2019-02-11T10:56:37.087Z,5.30
2019-02-11T10:59:06.493Z,5.97
2019-02-11T11:01:39.366Z,5.77
2019-02-11T11:04:10.565Z,5.20
2019-02-11T11:06:43.358Z,5.90
2019-02-11T11:09:16.502Z,5.43
2019-02-11T11:11:46.563Z,6.17
2019-02-11T11:14:16.210Z,6.60
2019-02-11T11:16:48.273Z,5.27
2019-02-11T11:19:18.154Z,5.30
2019-02-11T11:21:52.282Z,5.53
2019-02-11T11:24:21.874Z,5.23
2019-02-11T11:26:54.649Z,5.90
2019-02-11T11:29:24.342Z,5.77
2019-02-11T11:31:57.011Z,5.20
2019-02-11T11:34:26.629Z,5.53
2019-02-11T11:36:59.081Z,5.70
2019-02-11T11:39:28.665Z,5.87
2019-02-11T11:42:02.276Z,5.80
2019-02-11T11:44:31.890Z,5.10
2019-02-11T11:47:09.945Z,4.87
2019-02-11T11:49:39.592Z,5.13
2019-02-11T11:52:09.332Z,5.30
2019-02-11T11:54:38.997Z,5.83
2019-02-11T11:57:23.364Z,5.27
2019-02-11T11:59:53.291Z,5.00
2019-02-11T12:02:23.467Z,4.80
2019-02-11T12:04:56.338Z,4.83
2019-02-11T12:07:26.028Z,4.37
2019-02-11T12:09:59.491Z,4.80
2019-02-11T12:12:30.274Z,4.27
2019-02-11T12:14:59.941Z,4.10
2019-02-11T12:17:29.563Z,3.97
2019-02-11T12:19:59.590Z,4.30
2019-02-11T12:22:28.801Z,5.27
2019-02-11T12:24:58.401Z,4.70
2019-02-11T12:27:28.344Z,5.03
2019-02-11T12:29:58.978Z,4.20
2019-02-11T12:32:31.397Z,4.87
2019-02-11T12:35:01.305Z,4.77
2019-02-11T12:37:33.690Z,3.90
2019-02-11T12:40:03.306Z,4.93
2019-02-11T12:42:40.529Z,4.80
2019-02-11T12:45:13.049Z,3.70
2019-02-11T12:47:43.400Z,3.97
2019-02-11T12:50:17.006Z,4.13
2019-02-11T12:52:46.777Z,4.00
2019-02-11T12:55:19.113Z,3.07
2019-02-11T12:57:48.794Z,4.33
2019-02-11T13:00:20.509Z,4.57
2019-02-11T13:02:50.595Z,4.50
2019-02-11T13:05:22.933Z,5.03
2019-02-11T13:07:51.820Z,4.60
2019-02-11T13:10:21.629Z,4.03
2019-02-11T13:12:50.975Z,5.10
2019-02-11T13:15:56.823Z,5.10
2019-02-11T13:17:54.898Z,4.43
2019-02-11T13:20:25.109Z,5.03
2019-02-11T13:22:56.931Z,5.70
2019-02-11T13:25:26.901Z,5.47
2019-02-11T13:28:02.798Z,4.87
2019-02-11T13:30:32.521Z,4.70
2019-02-11T13:33:05.081Z,4.83
2019-02-11T13:35:36.535Z,5.07
2019-02-11T13:38:11.966Z,5.10
2019-02-11T13:40:41.905Z,4.60
2019-02-11T13:43:11.637Z,5.20
2019-02-11T13:45:41.870Z,4.50
2019-02-11T13:48:13.930Z,8.23
2019-02-11T13:50:42.899Z,4.73
2019-02-11T13:53:15.331Z,5.50
2019-02-11T13:55:44.951Z,5.30
2019-02-11T13:58:18.427Z,4.60
2019-02-11T14:00:50.220Z,5.13
2019-02-11T14:03:20.623Z,5.50
2019-02-11T14:05:49.907Z,5.07
2019-02-11T14:08:23.168Z,4.90
2019-02-11T14:10:55.008Z,4.77
2019-02-11T14:13:27.610Z,5.03
2019-02-11T14:15:56.570Z,5.07
2019-02-11T14:18:27.044Z,5.27
2019-02-11T14:21:00.124Z,4.87
2019-02-11T14:23:29.591Z,5.07
2019-02-11T14:25:59.330Z,4.20
2019-02-11T14:28:40.950Z,4.27
2019-02-11T14:31:11.131Z,4.10
2019-02-11T14:33:40.925Z,4.77
2019-02-11T14:36:10.713Z,4.90
2019-02-11T14:38:43.158Z,4.53
2019-02-11T14:41:12.797Z,3.67
2019-02-11T14:43:42.835Z,3.20
2019-02-11T14:46:12.452Z,3.90
2019-02-11T14:48:45.172Z,3.03
2019-02-11T14:51:15.346Z,2.80
2019-02-11T14:53:47.924Z,2.80
2019-02-11T14:56:17.590Z,4.33
2019-02-11T14:58:50.468Z,3.93
2019-02-11T15:01:20.123Z,4.57
2019-02-11T15:03:54.666Z,5.27
2019-02-11T15:06:24.359Z,4.17
2019-02-11T15:08:57.038Z,3.80
2019-02-11T15:11:26.743Z,4.70
2019-02-11T15:13:59.193Z,4.30
2019-02-11T15:16:28.564Z,3.67
2019-02-11T15:19:01.026Z,2.63
2019-02-11T15:21:30.644Z,4.67
2019-02-11T15:24:03.484Z,2.20
2019-02-11T15:26:33.114Z,3.30
2019-02-11T15:29:07.393Z,2.73
2019-02-11T15:31:36.898Z,2.30
2019-02-11T15:34:10.896Z,2.80
2019-02-11T15:36:40.574Z,2.63
2019-02-11T15:39:12.540Z,2.50
2019-02-11T15:41:42.979Z,3.30
2019-02-11T15:44:15.142Z,2.63
2019-02-11T15:46:44.717Z,2.47
2019-02-11T15:49:20.941Z,3.47
2019-02-11T15:51:50.715Z,2.47
2019-02-11T15:54:22.578Z,3.50
2019-02-11T15:56:52.270Z,2.90
2019-02-11T15:59:24.423Z,3.30
2019-02-11T16:01:54.406Z,2.70
2019-02-11T16:04:25.479Z,2.87
2019-02-11T16:06:55.262Z,2.87
2019-02-11T16:09:28.463Z,3.00
2019-02-11T16:11:58.105Z,2.80
2019-02-11T16:14:30.010Z,2.90
2019-02-11T16:16:59.666Z,2.77
2019-02-11T16:19:32.862Z,4.03
2019-02-11T16:22:02.175Z,3.57
2019-02-11T16:24:39.167Z,3.90
2019-02-11T16:27:08.902Z,4.00
2019-02-11T16:29:41.698Z,4.67
2019-02-11T16:32:11.542Z,4.40
2019-02-11T16:34:44.070Z,4.00
2019-02-11T16:37:13.917Z,4.67
2019-02-11T16:39:46.050Z,4.83
2019-02-11T16:42:15.009Z,4.77
2019-02-11T16:44:47.024Z,5.00
2019-02-11T16:47:16.907Z,4.43
2019-02-11T16:49:48.942Z,5.00
2019-02-11T16:52:17.897Z,4.50
2019-02-11T16:54:51.486Z,3.70
2019-02-11T16:57:21.260Z,3.40
2019-02-11T17:00:00.819Z,5.03
2019-02-11T17:02:30.571Z,3.60
2019-02-11T17:05:00.617Z,4.53
2019-02-11T17:07:29.584Z,3.80
2019-02-11T17:10:01.390Z,3.97
2019-02-11T17:12:31.026Z,4.20
2019-02-11T17:15:08.136Z,4.47
2019-02-11T17:17:37.399Z,4.07
2019-02-11T17:20:07.741Z,3.93
2019-02-11T17:22:37.865Z,4.10
2019-02-11T17:25:13.878Z,3.77
2019-02-11T17:27:43.795Z,3.53
2019-02-11T17:30:17.310Z,3.63
2019-02-11T17:32:46.573Z,3.43
2019-02-11T17:35:15.595Z,3.10
2019-02-11T17:37:45.449Z,3.67
2019-02-11T17:40:18.664Z,3.83
2019-02-11T17:42:47.604Z,3.73
2019-02-11T17:45:23.780Z,3.50
2019-02-11T17:47:53.626Z,4.27
2019-02-11T17:50:24.770Z,4.80
2019-02-11T17:52:55.164Z,4.90
2019-02-11T17:55:25.854Z,6.10
2019-02-11T17:57:54.784Z,5.40
2019-02-11T18:00:38.336Z,6.10
2019-02-11T18:03:08.216Z,5.30
2019-02-11T18:05:38.913Z,5.73
2019-02-11T18:08:08.593Z,4.90
2019-02-11T18:10:38.458Z,4.97
2019-02-11T18:13:09.078Z,6.20
2019-02-11T18:15:38.249Z,5.33
2019-02-11T18:18:07.834Z,5.90
2019-02-11T18:20:40.276Z,6.20
2019-02-11T18:23:10.185Z,5.60
2019-02-11T18:25:41.711Z,5.73
2019-02-11T18:28:11.363Z,6.73
2019-02-11T18:30:45.060Z,6.87
2019-02-11T18:33:14.878Z,5.83
2019-02-11T18:35:46.259Z,6.93
2019-02-11T18:38:15.483Z,5.60
2019-02-11T18:40:48.782Z,6.20
2019-02-11T18:43:18.399Z,6.47
2019-02-11T18:45:51.166Z,6.17
2019-02-11T18:48:20.406Z,6.13
2019-02-11T18:50:53.548Z,6.77
2019-02-11T18:53:22.610Z,6.77
2019-02-11T18:55:58.049Z,6.57
2019-02-11T18:58:27.673Z,6.30
2019-02-11T19:01:00.430Z,6.63
2019-02-11T19:03:30.311Z,7.43
2019-02-11T19:06:03.608Z,6.60
2019-02-11T19:08:33.328Z,6.80
2019-02-11T19:11:07.865Z,6.57
2019-02-11T19:13:37.815Z,6.67
2019-02-11T19:16:13.746Z,6.70
2019-02-11T19:18:44.823Z,6.37
2019-02-11T19:21:14.580Z,6.13
2019-02-11T19:26:14.275Z,5.73
2019-02-11T19:28:44.010Z,6.20
2019-02-11T19:31:18.576Z,6.10
2019-02-11T19:33:48.171Z,6.23
2019-02-11T19:36:20.842Z,6.03
2019-02-11T19:38:50.583Z,6.07
2019-02-11T19:41:23.152Z,6.30
2019-02-11T19:43:52.748Z,6.60
2019-02-11T19:46:26.319Z,7.37
2019-02-11T19:48:55.311Z,6.13
2019-02-11T19:51:32.107Z,7.73
2019-02-11T19:54:01.278Z,7.07
2019-02-11T19:56:30.884Z,6.40
2019-02-11T19:59:00.542Z,7.40
2019-02-11T20:01:32.827Z,7.23
2019-02-11T20:04:07.247Z,7.30
2019-02-11T20:06:38.779Z,7.90
2019-02-11T20:09:08.770Z,7.47
2019-02-11T20:11:38.552Z,7.70
2019-02-11T20:14:08.172Z,7.27
2019-02-11T20:16:40.537Z,11.13
2019-02-11T20:19:09.743Z,8.57
2019-02-11T20:21:45.201Z,7.97
2019-02-11T20:24:17.448Z,9.10
2019-02-11T20:26:47.344Z,9.93
2019-02-11T20:29:19.751Z,9.80
2019-02-11T20:31:48.956Z,8.40
2019-02-11T20:34:18.562Z,8.47
2019-02-11T20:36:51.842Z,8.53
2019-02-11T20:39:21.442Z,9.33
2019-02-11T20:41:54.785Z,8.23
2019-02-11T20:44:24.446Z,8.73
2019-02-11T20:46:57.890Z,8.87
2019-02-11T20:49:29.876Z,8.23
2019-02-11T20:52:02.554Z,7.73
2019-02-11T20:54:32.702Z,7.23
2019-02-11T20:57:04.918Z,7.90
2019-02-11T20:59:35.814Z,8.07
2019-02-11T21:02:07.797Z,8.17
2019-02-11T21:04:37.729Z,8.50
2019-02-11T21:07:11.748Z,7.13
2019-02-11T21:09:41.498Z,7.17
2019-02-11T21:12:14.278Z,7.03
2019-02-11T21:14:44.165Z,6.30
2019-02-11T21:17:16.534Z,7.93
2019-02-11T21:19:46.572Z,6.63
2019-02-11T21:22:18.308Z,7.00
2019-02-11T21:24:47.997Z,6.40
2019-02-11T21:27:21.434Z,7.10
2019-02-11T21:29:51.047Z,7.27
2019-02-11T21:32:23.487Z,7.23
2019-02-11T21:34:53.637Z,7.07
2019-02-11T21:37:26.271Z,6.77
2019-02-11T21:39:55.206Z,6.50
2019-02-11T21:42:29.770Z,6.23
2019-02-11T21:44:59.554Z,7.17
2019-02-11T21:47:30.123Z,5.97
2019-02-11T21:50:00.216Z,6.97
2019-02-11T21:52:35.108Z,6.77
2019-02-11T21:55:07.876Z,6.87
2019-02-11T21:57:39.993Z,5.93
2019-02-11T22:00:12.160Z,6.50
2019-02-11T22:02:44.022Z,6.47
2019-02-11T22:05:14.331Z,6.40
2019-02-11T22:07:43.340Z,6.70
2019-02-11T22:10:14.560Z,6.90
2019-02-11T22:12:44.492Z,6.50
2019-02-11T22:15:14.974Z,8.13
2019-02-11T22:17:46.638Z,7.37
2019-02-11T22:20:17.767Z,5.93
2019-02-11T22:22:50.511Z,6.63
2019-02-11T22:25:20.427Z,5.93
2019-02-11T22:27:53.382Z,7.07
2019-02-11T22:30:23.018Z,6.13
2019-02-11T22:32:55.302Z,7.67
2019-02-11T22:35:25.179Z,7.50
2019-02-11T22:37:56.938Z,7.07
2019-02-11T22:40:28.325Z,7.00
2019-02-11T22:43:00.978Z,6.53
2019-02-11T22:45:30.583Z,6.27
2019-02-11T22:48:02.915Z,7.40
2019-02-11T22:50:32.790Z,6.60
2019-02-11T22:53:08.601Z,6.27
2019-02-11T22:55:38.417Z,6.50
2019-02-11T22:58:12.531Z,7.00
2019-02-11T23:00:53.013Z,6.97
2019-02-11T23:03:22.846Z,6.50
2019-02-11T23:05:52.443Z,6.60
2019-02-11T23:08:21.394Z,7.97
2019-02-11T23:10:50.973Z,7.90
2019-02-11T23:13:20.562Z,7.63
2019-02-11T23:15:50.438Z,7.60
2019-02-11T23:18:22.858Z,7.07
2019-02-11T23:20:52.436Z,7.93
2019-02-11T23:23:24.554Z,6.07
2019-02-11T23:25:54.135Z,7.20
2019-02-11T23:28:26.411Z,6.20
2019-02-11T23:30:55.370Z,6.77
2019-02-11T23:33:31.047Z,9.17
2019-02-11T23:36:00.928Z,8.03
2019-02-11T23:38:30.803Z,11.07
2019-02-11T23:41:00.396Z,8.00
2019-02-11T23:43:34.527Z,7.20
2019-02-11T23:46:04.110Z,8.50
2019-02-11T23:48:39.514Z,8.90
2019-02-11T23:51:08.767Z,8.67
2019-02-11T23:53:40.545Z,9.70
2019-02-11T23:56:10.159Z,11.17
2019-02-11T23:58:41.537Z,9.67
